sensor_id;sensor_type;location;lat;lon;timestamp;P1;durP1;ratioP1;P2;durP2;ratioP2
78453;SDS011;67750;55.832;49.124;2023-09-30T00:01:34;2.25;;;1.20;;
78453;SDS011;67750;55.832;49.124;2023-09-30T00:04:03;2.67;;;1.55;;
78453;SDS011;67750;55.832;49.124;2023-09-30T00:06:34;2.10;;;1.10;;
78453;SDS011;67750;55.832;49.124;2023-09-30T00:09:04;3.95;;;1.60;;
78453;SDS011;67750;55.832;49.124;2023-09-30T00:11:34;6.45;;;1.72;;
78453;SDS011;67750;55.832;49.124;2023-09-30T00:14:04;2.90;;;1.40;;
78453;SDS011;67750;55.832;49.124;2023-09-30T00:16:33;3.25;;;1.47;;
78453;SDS011;67750;55.832;49.124;2023-09-30T00:19:03;3.50;;;1.70;;
78453;SDS011;67750;55.832;49.124;2023-09-30T00:21:33;2.65;;;1.20;;
78453;SDS011;67750;55.832;49.124;2023-09-30T00:24:02;5.22;;;1.22;;
78453;SDS011;67750;55.832;49.124;2023-09-30T00:26:32;3.75;;;1.40;;
78453;SDS011;67750;55.832;49.124;2023-09-30T00:29:01;4.87;;;1.42;;
78453;SDS011;67750;55.832;49.124;2023-09-30T00:31:32;5.58;;;1.50;;
78453;SDS011;67750;55.832;49.124;2023-09-30T00:34:01;2.80;;;1.45;;
78453;SDS011;67750;55.832;49.124;2023-09-30T00:36:31;5.70;;;1.60;;
78453;SDS011;67750;55.832;49.124;2023-09-30T00:39:01;3.55;;;1.10;;
78453;SDS011;67750;55.832;49.124;2023-09-30T00:41:31;3.35;;;1.30;;
78453;SDS011;67750;55.832;49.124;2023-09-30T00:44:01;2.30;;;1.17;;
78453;SDS011;67750;55.832;49.124;2023-09-30T00:46:32;3.10;;;1.30;;
78453;SDS011;67750;55.832;49.124;2023-09-30T00:49:01;3.22;;;1.50;;
78453;SDS011;67750;55.832;49.124;2023-09-30T00:51:31;4.67;;;1.30;;
78453;SDS011;67750;55.832;49.124;2023-09-30T00:54:01;3.40;;;1.40;;
78453;SDS011;67750;55.832;49.124;2023-09-30T00:56:31;2.77;;;1.45;;
78453;SDS011;67750;55.832;49.124;2023-09-30T00:59:01;4.17;;;1.35;;
78453;SDS011;67750;55.832;49.124;2023-09-30T01:01:31;3.60;;;1.70;;
78453;SDS011;67750;55.832;49.124;2023-09-30T01:04:01;3.83;;;1.50;;
78453;SDS011;67750;55.832;49.124;2023-09-30T01:06:31;3.20;;;1.50;;
78453;SDS011;67750;55.832;49.124;2023-09-30T01:09:01;3.00;;;1.57;;
78453;SDS011;67750;55.832;49.124;2023-09-30T01:11:30;4.60;;;1.65;;
78453;SDS011;67750;55.832;49.124;2023-09-30T01:14:00;4.30;;;1.70;;
78453;SDS011;67750;55.832;49.124;2023-09-30T01:16:29;2.87;;;1.70;;
78453;SDS011;67750;55.832;49.124;2023-09-30T01:21:33;3.45;;;1.70;;
78453;SDS011;67750;55.832;49.124;2023-09-30T01:24:01;4.35;;;1.60;;
78453;SDS011;67750;55.832;49.124;2023-09-30T01:26:31;3.58;;;1.40;;
78453;SDS011;67750;55.832;49.124;2023-09-30T01:29:01;3.83;;;1.50;;
78453;SDS011;67750;55.832;49.124;2023-09-30T01:31:31;4.72;;;1.70;;
78453;SDS011;67750;55.832;49.124;2023-09-30T01:34:01;2.98;;;1.47;;
78453;SDS011;67750;55.832;49.124;2023-09-30T01:36:31;3.20;;;1.50;;
78453;SDS011;67750;55.832;49.124;2023-09-30T01:39:01;7.35;;;1.72;;
78453;SDS011;67750;55.832;49.124;2023-09-30T01:41:30;3.15;;;1.62;;
78453;SDS011;67750;55.832;49.124;2023-09-30T01:44:00;4.42;;;1.65;;
78453;SDS011;67750;55.832;49.124;2023-09-30T01:46:30;3.17;;;1.40;;
78453;SDS011;67750;55.832;49.124;2023-09-30T01:49:00;2.83;;;1.27;;
78453;SDS011;67750;55.832;49.124;2023-09-30T01:51:30;4.67;;;1.60;;
78453;SDS011;67750;55.832;49.124;2023-09-30T01:54:00;5.65;;;1.57;;
78453;SDS011;67750;55.832;49.124;2023-09-30T01:56:30;2.47;;;1.42;;
78453;SDS011;67750;55.832;49.124;2023-09-30T01:59:00;3.55;;;1.50;;
78453;SDS011;67750;55.832;49.124;2023-09-30T02:01:29;3.55;;;1.40;;
78453;SDS011;67750;55.832;49.124;2023-09-30T02:03:59;3.52;;;1.50;;
78453;SDS011;67750;55.832;49.124;2023-09-30T02:06:28;3.00;;;1.67;;
78453;SDS011;67750;55.832;49.124;2023-09-30T02:08:58;5.67;;;1.60;;
78453;SDS011;67750;55.832;49.124;2023-09-30T02:11:27;4.40;;;1.60;;
78453;SDS011;67750;55.832;49.124;2023-09-30T02:13:57;2.92;;;1.45;;
78453;SDS011;67750;55.832;49.124;2023-09-30T02:16:27;3.27;;;1.70;;
78453;SDS011;67750;55.832;49.124;2023-09-30T02:18:57;4.03;;;1.70;;
78453;SDS011;67750;55.832;49.124;2023-09-30T02:21:27;5.22;;;1.90;;
78453;SDS011;67750;55.832;49.124;2023-09-30T02:23:57;2.47;;;1.50;;
78453;SDS011;67750;55.832;49.124;2023-09-30T02:26:27;2.65;;;1.50;;
78453;SDS011;67750;55.832;49.124;2023-09-30T02:28:56;4.03;;;1.65;;
78453;SDS011;67750;55.832;49.124;2023-09-30T02:31:26;2.95;;;1.72;;
78453;SDS011;67750;55.832;49.124;2023-09-30T02:33:56;3.85;;;1.72;;
78453;SDS011;67750;55.832;49.124;2023-09-30T02:36:25;4.00;;;1.65;;
78453;SDS011;67750;55.832;49.124;2023-09-30T02:38:55;5.30;;;1.75;;
78453;SDS011;67750;55.832;49.124;2023-09-30T02:41:25;5.22;;;1.80;;
78453;SDS011;67750;55.832;49.124;2023-09-30T02:43:54;4.92;;;1.92;;
78453;SDS011;67750;55.832;49.124;2023-09-30T02:46:24;3.02;;;1.70;;
78453;SDS011;67750;55.832;49.124;2023-09-30T02:51:23;5.85;;;2.52;;
78453;SDS011;67750;55.832;49.124;2023-09-30T02:53:54;4.42;;;1.90;;
78453;SDS011;67750;55.832;49.124;2023-09-30T02:56:24;6.75;;;2.00;;
78453;SDS011;67750;55.832;49.124;2023-09-30T03:01:24;5.75;;;2.00;;
78453;SDS011;67750;55.832;49.124;2023-09-30T03:03:54;5.12;;;2.08;;
78453;SDS011;67750;55.832;49.124;2023-09-30T03:06:23;4.35;;;1.87;;
78453;SDS011;67750;55.832;49.124;2023-09-30T03:08:53;3.65;;;1.85;;
78453;SDS011;67750;55.832;49.124;2023-09-30T03:11:22;3.37;;;1.90;;
78453;SDS011;67750;55.832;49.124;2023-09-30T03:13:52;6.83;;;2.08;;
78453;SDS011;67750;55.832;49.124;2023-09-30T03:16:22;4.60;;;1.77;;
78453;SDS011;67750;55.832;49.124;2023-09-30T03:18:52;2.83;;;1.55;;
78453;SDS011;67750;55.832;49.124;2023-09-30T03:21:22;3.95;;;1.50;;
78453;SDS011;67750;55.832;49.124;2023-09-30T03:23:52;5.35;;;1.92;;
78453;SDS011;67750;55.832;49.124;2023-09-30T03:26:21;4.58;;;1.80;;
78453;SDS011;67750;55.832;49.124;2023-09-30T03:28:51;5.85;;;1.85;;
78453;SDS011;67750;55.832;49.124;2023-09-30T03:31:21;3.60;;;1.80;;
78453;SDS011;67750;55.832;49.124;2023-09-30T03:33:51;4.08;;;1.77;;
78453;SDS011;67750;55.832;49.124;2023-09-30T03:36:21;16.85;;;2.00;;
78453;SDS011;67750;55.832;49.124;2023-09-30T03:39:10;5.72;;;1.57;;
78453;SDS011;67750;55.832;49.124;2023-09-30T03:41:41;5.03;;;2.00;;
78453;SDS011;67750;55.832;49.124;2023-09-30T03:44:11;3.47;;;2.10;;
78453;SDS011;67750;55.832;49.124;2023-09-30T03:46:41;4.40;;;2.02;;
78453;SDS011;67750;55.832;49.124;2023-09-30T03:49:10;4.47;;;2.00;;
78453;SDS011;67750;55.832;49.124;2023-09-30T03:51:40;5.28;;;1.70;;
78453;SDS011;67750;55.832;49.124;2023-09-30T03:54:10;4.72;;;1.70;;
78453;SDS011;67750;55.832;49.124;2023-09-30T03:56:39;4.72;;;1.62;;
78453;SDS011;67750;55.832;49.124;2023-09-30T03:59:09;4.40;;;1.82;;
78453;SDS011;67750;55.832;49.124;2023-09-30T04:01:38;8.43;;;3.00;;
78453;SDS011;67750;55.832;49.124;2023-09-30T04:06:38;9.25;;;3.98;;
78453;SDS011;67750;55.832;49.124;2023-09-30T04:09:07;7.12;;;2.87;;
78453;SDS011;67750;55.832;49.124;2023-09-30T04:11:37;7.12;;;3.33;;
78453;SDS011;67750;55.832;49.124;2023-09-30T04:16:58;7.08;;;2.60;;
78453;SDS011;67750;55.832;49.124;2023-09-30T04:19:27;5.60;;;2.30;;
78453;SDS011;67750;55.832;49.124;2023-09-30T04:21:57;6.50;;;2.40;;
78453;SDS011;67750;55.832;49.124;2023-09-30T04:24:27;5.90;;;2.65;;
78453;SDS011;67750;55.832;49.124;2023-09-30T04:26:56;9.13;;;3.10;;
78453;SDS011;67750;55.832;49.124;2023-09-30T04:29:27;6.25;;;2.75;;
78453;SDS011;67750;55.832;49.124;2023-09-30T04:31:57;7.15;;;2.42;;
78453;SDS011;67750;55.832;49.124;2023-09-30T04:34:26;3.95;;;1.98;;
78453;SDS011;67750;55.832;49.124;2023-09-30T04:36:56;3.42;;;1.90;;
78453;SDS011;67750;55.832;49.124;2023-09-30T04:39:26;6.67;;;2.05;;
78453;SDS011;67750;55.832;49.124;2023-09-30T04:41:56;6.15;;;2.42;;
78453;SDS011;67750;55.832;49.124;2023-09-30T04:44:27;4.17;;;1.92;;
78453;SDS011;67750;55.832;49.124;2023-09-30T04:46:57;6.05;;;2.37;;
78453;SDS011;67750;55.832;49.124;2023-09-30T04:49:27;4.65;;;2.10;;
78453;SDS011;67750;55.832;49.124;2023-09-30T04:51:56;6.80;;;2.45;;
78453;SDS011;67750;55.832;49.124;2023-09-30T04:54:26;6.62;;;2.42;;
78453;SDS011;67750;55.832;49.124;2023-09-30T04:56:56;5.70;;;2.45;;
78453;SDS011;67750;55.832;49.124;2023-09-30T04:59:26;5.40;;;2.12;;
78453;SDS011;67750;55.832;49.124;2023-09-30T05:01:56;4.55;;;2.87;;
78453;SDS011;67750;55.832;49.124;2023-09-30T05:04:27;4.53;;;2.00;;
78453;SDS011;67750;55.832;49.124;2023-09-30T05:06:56;5.70;;;2.10;;
78453;SDS011;67750;55.832;49.124;2023-09-30T05:09:26;6.17;;;2.12;;
78453;SDS011;67750;55.832;49.124;2023-09-30T05:11:56;9.43;;;1.82;;
78453;SDS011;67750;55.832;49.124;2023-09-30T05:14:25;4.42;;;1.85;;
78453;SDS011;67750;55.832;49.124;2023-09-30T05:16:56;4.05;;;2.40;;
78453;SDS011;67750;55.832;49.124;2023-09-30T05:19:26;4.78;;;2.22;;
78453;SDS011;67750;55.832;49.124;2023-09-30T05:21:55;4.97;;;2.55;;
78453;SDS011;67750;55.832;49.124;2023-09-30T05:24:24;6.45;;;2.77;;
78453;SDS011;67750;55.832;49.124;2023-09-30T05:26:54;5.55;;;2.50;;
78453;SDS011;67750;55.832;49.124;2023-09-30T05:29:24;7.37;;;2.95;;
78453;SDS011;67750;55.832;49.124;2023-09-30T05:31:54;4.47;;;2.60;;
78453;SDS011;67750;55.832;49.124;2023-09-30T05:34:24;9.85;;;2.65;;
78453;SDS011;67750;55.832;49.124;2023-09-30T05:39:23;4.72;;;2.10;;
78453;SDS011;67750;55.832;49.124;2023-09-30T05:41:52;4.50;;;2.50;;
78453;SDS011;67750;55.832;49.124;2023-09-30T05:44:22;9.78;;;2.87;;
78453;SDS011;67750;55.832;49.124;2023-09-30T05:46:53;6.08;;;2.67;;
78453;SDS011;67750;55.832;49.124;2023-09-30T05:49:23;8.73;;;2.80;;
78453;SDS011;67750;55.832;49.124;2023-09-30T05:51:52;5.45;;;2.75;;
78453;SDS011;67750;55.832;49.124;2023-09-30T05:54:22;8.55;;;2.90;;
78453;SDS011;67750;55.832;49.124;2023-09-30T05:56:51;13.98;;;3.40;;
78453;SDS011;67750;55.832;49.124;2023-09-30T05:59:21;6.95;;;3.27;;
78453;SDS011;67750;55.832;49.124;2023-09-30T06:01:52;7.22;;;3.52;;
78453;SDS011;67750;55.832;49.124;2023-09-30T06:04:21;6.28;;;2.80;;
78453;SDS011;67750;55.832;49.124;2023-09-30T06:06:51;6.78;;;3.27;;
78453;SDS011;67750;55.832;49.124;2023-09-30T06:09:20;5.87;;;3.17;;
78453;SDS011;67750;55.832;49.124;2023-09-30T06:11:51;7.80;;;3.05;;
78453;SDS011;67750;55.832;49.124;2023-09-30T06:14:21;6.90;;;3.37;;
78453;SDS011;67750;55.832;49.124;2023-09-30T06:16:52;5.22;;;2.92;;
78453;SDS011;67750;55.832;49.124;2023-09-30T06:19:22;5.95;;;3.15;;
78453;SDS011;67750;55.832;49.124;2023-09-30T06:21:52;7.53;;;2.60;;
78453;SDS011;67750;55.832;49.124;2023-09-30T06:24:23;6.50;;;3.20;;
78453;SDS011;67750;55.832;49.124;2023-09-30T06:26:54;6.08;;;3.00;;
78453;SDS011;67750;55.832;49.124;2023-09-30T06:29:23;6.87;;;2.77;;
78453;SDS011;67750;55.832;49.124;2023-09-30T06:31:54;8.80;;;3.22;;
78453;SDS011;67750;55.832;49.124;2023-09-30T06:34:23;4.87;;;2.83;;
78453;SDS011;67750;55.832;49.124;2023-09-30T06:36:53;7.20;;;2.50;;
78453;SDS011;67750;55.832;49.124;2023-09-30T06:39:22;5.15;;;2.52;;
78453;SDS011;67750;55.832;49.124;2023-09-30T06:41:52;3.80;;;2.27;;
78453;SDS011;67750;55.832;49.124;2023-09-30T06:44:21;3.77;;;2.20;;
78453;SDS011;67750;55.832;49.124;2023-09-30T06:46:52;3.80;;;1.90;;
78453;SDS011;67750;55.832;49.124;2023-09-30T06:49:22;4.25;;;2.20;;
78453;SDS011;67750;55.832;49.124;2023-09-30T06:51:51;5.10;;;1.67;;
78453;SDS011;67750;55.832;49.124;2023-09-30T06:54:21;4.62;;;2.37;;
78453;SDS011;67750;55.832;49.124;2023-09-30T06:56:50;6.47;;;2.10;;
78453;SDS011;67750;55.832;49.124;2023-09-30T06:59:21;6.55;;;1.90;;
78453;SDS011;67750;55.832;49.124;2023-09-30T07:01:52;2.77;;;1.50;;
78453;SDS011;67750;55.832;49.124;2023-09-30T07:07:11;6.08;;;1.65;;
78453;SDS011;67750;55.832;49.124;2023-09-30T07:09:43;3.83;;;1.45;;
78453;SDS011;67750;55.832;49.124;2023-09-30T07:12:12;4.87;;;1.80;;
78453;SDS011;67750;55.832;49.124;2023-09-30T07:14:42;4.33;;;1.75;;
78453;SDS011;67750;55.832;49.124;2023-09-30T07:17:12;3.98;;;1.42;;
78453;SDS011;67750;55.832;49.124;2023-09-30T07:19:41;2.72;;;1.30;;
78453;SDS011;67750;55.832;49.124;2023-09-30T07:22:11;1.70;;;0.95;;
78453;SDS011;67750;55.832;49.124;2023-09-30T07:24:40;2.00;;;0.82;;
78453;SDS011;67750;55.832;49.124;2023-09-30T07:27:10;3.30;;;1.15;;
78453;SDS011;67750;55.832;49.124;2023-09-30T07:29:40;1.40;;;0.70;;
78453;SDS011;67750;55.832;49.124;2023-09-30T07:32:09;1.30;;;0.78;;
78453;SDS011;67750;55.832;49.124;2023-09-30T07:34:39;1.47;;;0.70;;
78453;SDS011;67750;55.832;49.124;2023-09-30T07:37:08;0.88;;;0.50;;
78453;SDS011;67750;55.832;49.124;2023-09-30T07:39:38;0.93;;;0.42;;
78453;SDS011;67750;55.832;49.124;2023-09-30T07:44:57;1.77;;;0.62;;
78453;SDS011;67750;55.832;49.124;2023-09-30T07:47:27;1.42;;;0.70;;
78453;SDS011;67750;55.832;49.124;2023-09-30T07:49:58;1.30;;;0.60;;
78453;SDS011;67750;55.832;49.124;2023-09-30T07:52:27;2.12;;;1.10;;
78453;SDS011;67750;55.832;49.124;2023-09-30T07:54:57;2.72;;;0.80;;
78453;SDS011;67750;55.832;49.124;2023-09-30T07:57:27;3.80;;;0.88;;
78453;SDS011;67750;55.832;49.124;2023-09-30T07:59:56;1.80;;;0.90;;
78453;SDS011;67750;55.832;49.124;2023-09-30T08:02:27;2.15;;;0.65;;
78453;SDS011;67750;55.832;49.124;2023-09-30T08:04:59;1.50;;;0.60;;
78453;SDS011;67750;55.832;49.124;2023-09-30T08:07:28;1.75;;;0.57;;
78453;SDS011;67750;55.832;49.124;2023-09-30T08:09:58;1.62;;;0.82;;
78453;SDS011;67750;55.832;49.124;2023-09-30T08:12:27;1.35;;;0.70;;
78453;SDS011;67750;55.832;49.124;2023-09-30T08:14:57;3.85;;;0.88;;
78453;SDS011;67750;55.832;49.124;2023-09-30T08:17:26;2.20;;;1.10;;
78453;SDS011;67750;55.832;49.124;2023-09-30T08:19:56;2.02;;;0.70;;
78453;SDS011;67750;55.832;49.124;2023-09-30T08:22:26;3.35;;;1.00;;
78453;SDS011;67750;55.832;49.124;2023-09-30T08:24:55;2.40;;;0.78;;
78453;SDS011;67750;55.832;49.124;2023-09-30T08:27:26;1.85;;;0.78;;
78453;SDS011;67750;55.832;49.124;2023-09-30T08:29:55;2.02;;;0.85;;
78453;SDS011;67750;55.832;49.124;2023-09-30T08:32:25;3.05;;;1.55;;
78453;SDS011;67750;55.832;49.124;2023-09-30T08:34:54;2.83;;;1.02;;
78453;SDS011;67750;55.832;49.124;2023-09-30T08:39:54;3.25;;;1.00;;
78453;SDS011;67750;55.832;49.124;2023-09-30T08:42:23;2.00;;;0.85;;
78453;SDS011;67750;55.832;49.124;2023-09-30T08:44:56;2.20;;;1.02;;
78453;SDS011;67750;55.832;49.124;2023-09-30T08:47:26;2.62;;;0.80;;
78453;SDS011;67750;55.832;49.124;2023-09-30T08:49:56;1.70;;;0.82;;
78453;SDS011;67750;55.832;49.124;2023-09-30T08:52:28;4.55;;;1.02;;
78453;SDS011;67750;55.832;49.124;2023-09-30T08:54:58;3.08;;;1.32;;
78453;SDS011;67750;55.832;49.124;2023-09-30T08:57:28;3.60;;;1.32;;
78453;SDS011;67750;55.832;49.124;2023-09-30T08:59:58;2.55;;;1.10;;
78453;SDS011;67750;55.832;49.124;2023-09-30T09:02:28;3.33;;;0.93;;
78453;SDS011;67750;55.832;49.124;2023-09-30T09:04:58;2.75;;;1.27;;
78453;SDS011;67750;55.832;49.124;2023-09-30T09:07:27;2.50;;;1.20;;
78453;SDS011;67750;55.832;49.124;2023-09-30T09:10:17;6.40;;;1.42;;
78453;SDS011;67750;55.832;49.124;2023-09-30T09:12:54;4.72;;;1.20;;
78453;SDS011;67750;55.832;49.124;2023-09-30T09:18:08;3.47;;;1.10;;
78453;SDS011;67750;55.832;49.124;2023-09-30T09:20:39;2.50;;;1.00;;
78453;SDS011;67750;55.832;49.124;2023-09-30T09:23:08;1.82;;;0.88;;
78453;SDS011;67750;55.832;49.124;2023-09-30T09:25:38;3.92;;;1.20;;
78453;SDS011;67750;55.832;49.124;2023-09-30T09:28:08;3.75;;;1.12;;
78453;SDS011;67750;55.832;49.124;2023-09-30T09:30:38;5.25;;;1.40;;
78453;SDS011;67750;55.832;49.124;2023-09-30T09:33:08;3.47;;;1.15;;
78453;SDS011;67750;55.832;49.124;2023-09-30T09:35:38;3.22;;;1.17;;
78453;SDS011;67750;55.832;49.124;2023-09-30T09:38:07;2.95;;;1.40;;
78453;SDS011;67750;55.832;49.124;2023-09-30T09:40:37;3.12;;;1.10;;
78453;SDS011;67750;55.832;49.124;2023-09-30T09:43:07;4.75;;;1.22;;
78453;SDS011;67750;55.832;49.124;2023-09-30T09:45:38;4.37;;;1.30;;
78453;SDS011;67750;55.832;49.124;2023-09-30T09:48:08;3.33;;;1.55;;
78453;SDS011;67750;55.832;49.124;2023-09-30T09:50:39;4.12;;;1.50;;
78453;SDS011;67750;55.832;49.124;2023-09-30T09:53:11;4.17;;;1.72;;
78453;SDS011;67750;55.832;49.124;2023-09-30T09:55:40;2.77;;;1.30;;
78453;SDS011;67750;55.832;49.124;2023-09-30T09:58:11;5.10;;;1.55;;
78453;SDS011;67750;55.832;49.124;2023-09-30T10:00:42;2.47;;;1.07;;
78453;SDS011;67750;55.832;49.124;2023-09-30T10:03:12;2.98;;;1.87;;
78453;SDS011;67750;55.832;49.124;2023-09-30T10:05:41;5.03;;;1.72;;
78453;SDS011;67750;55.832;49.124;2023-09-30T10:08:14;4.08;;;1.65;;
78453;SDS011;67750;55.832;49.124;2023-09-30T10:10:44;2.98;;;1.50;;
78453;SDS011;67750;55.832;49.124;2023-09-30T10:16:03;3.87;;;1.87;;
78453;SDS011;67750;55.832;49.124;2023-09-30T10:18:37;5.60;;;1.80;;
78453;SDS011;67750;55.832;49.124;2023-09-30T10:24:15;3.72;;;1.92;;
78453;SDS011;67750;55.832;49.124;2023-09-30T10:26:24;3.05;;;1.70;;
78453;SDS011;67750;55.832;49.124;2023-09-30T10:28:54;4.15;;;1.70;;
78453;SDS011;67750;55.832;49.124;2023-09-30T10:31:23;3.65;;;1.70;;
78453;SDS011;67750;55.832;49.124;2023-09-30T10:34:25;5.70;;;2.17;;
78453;SDS011;67750;55.832;49.124;2023-09-30T10:39:14;6.75;;;2.30;;
78453;SDS011;67750;55.832;49.124;2023-09-30T10:49:55;3.70;;;1.55;;
78453;SDS011;67750;55.832;49.124;2023-09-30T10:52:24;4.47;;;2.20;;
78453;SDS011;67750;55.832;49.124;2023-09-30T10:54:55;4.15;;;1.70;;
78453;SDS011;67750;55.832;49.124;2023-09-30T10:57:26;4.05;;;1.98;;
78453;SDS011;67750;55.832;49.124;2023-09-30T11:00:28;5.67;;;1.60;;
78453;SDS011;67750;55.832;49.124;2023-09-30T11:02:27;4.83;;;1.60;;
78453;SDS011;67750;55.832;49.124;2023-09-30T11:04:57;4.92;;;1.90;;
78453;SDS011;67750;55.832;49.124;2023-09-30T11:07:28;4.90;;;2.12;;
78453;SDS011;67750;55.832;49.124;2023-09-30T11:10:00;3.75;;;1.80;;
78453;SDS011;67750;55.832;49.124;2023-09-30T11:12:30;3.98;;;1.55;;
78453;SDS011;67750;55.832;49.124;2023-09-30T11:17:49;3.62;;;1.72;;
78453;SDS011;67750;55.832;49.124;2023-09-30T11:20:19;3.55;;;1.80;;
78453;SDS011;67750;55.832;49.124;2023-09-30T11:22:49;3.70;;;1.60;;
78453;SDS011;67750;55.832;49.124;2023-09-30T11:25:18;7.05;;;1.72;;
78453;SDS011;67750;55.832;49.124;2023-09-30T11:27:48;4.22;;;2.08;;
78453;SDS011;67750;55.832;49.124;2023-09-30T11:30:18;3.17;;;1.82;;
78453;SDS011;67750;55.832;49.124;2023-09-30T11:32:47;3.65;;;1.90;;
78453;SDS011;67750;55.832;49.124;2023-09-30T11:38:06;3.17;;;1.40;;
78453;SDS011;67750;55.832;49.124;2023-09-30T11:40:36;4.33;;;1.42;;
78453;SDS011;67750;55.832;49.124;2023-09-30T11:57:16;3.25;;;1.40;;
78453;SDS011;67750;55.832;49.124;2023-09-30T11:59:47;4.22;;;1.60;;
78453;SDS011;67750;55.832;49.124;2023-09-30T12:02:18;4.17;;;1.92;;
78453;SDS011;67750;55.832;49.124;2023-09-30T12:04:48;2.92;;;1.40;;
78453;SDS011;67750;55.832;49.124;2023-09-30T12:07:18;2.50;;;1.40;;
78453;SDS011;67750;55.832;49.124;2023-09-30T12:09:47;2.22;;;1.20;;
78453;SDS011;67750;55.832;49.124;2023-09-30T12:12:17;3.87;;;1.12;;
78453;SDS011;67750;55.832;49.124;2023-09-30T12:14:46;5.47;;;1.72;;
78453;SDS011;67750;55.832;49.124;2023-09-30T12:17:17;2.95;;;1.30;;
78453;SDS011;67750;55.832;49.124;2023-09-30T12:19:49;2.77;;;1.10;;
78453;SDS011;67750;55.832;49.124;2023-09-30T12:22:19;1.80;;;1.10;;
78453;SDS011;67750;55.832;49.124;2023-09-30T12:24:49;3.90;;;1.22;;
78453;SDS011;67750;55.832;49.124;2023-09-30T12:27:19;2.30;;;1.05;;
78453;SDS011;67750;55.832;49.124;2023-09-30T12:29:48;3.37;;;1.10;;
78453;SDS011;67750;55.832;49.124;2023-09-30T12:32:18;2.72;;;1.20;;
78453;SDS011;67750;55.832;49.124;2023-09-30T12:34:48;4.95;;;1.65;;
78453;SDS011;67750;55.832;49.124;2023-09-30T12:37:18;2.83;;;1.45;;
78453;SDS011;67750;55.832;49.124;2023-09-30T12:39:48;3.37;;;1.67;;
78453;SDS011;67750;55.832;49.124;2023-09-30T12:42:18;5.37;;;2.08;;
78453;SDS011;67750;55.832;49.124;2023-09-30T12:44:48;4.70;;;1.22;;
78453;SDS011;67750;55.832;49.124;2023-09-30T12:47:17;3.05;;;1.35;;
78453;SDS011;67750;55.832;49.124;2023-09-30T12:49:47;3.25;;;1.50;;
78453;SDS011;67750;55.832;49.124;2023-09-30T12:52:16;3.47;;;1.40;;
78453;SDS011;67750;55.832;49.124;2023-09-30T12:54:46;4.83;;;1.82;;
78453;SDS011;67750;55.832;49.124;2023-09-30T12:57:15;5.20;;;1.40;;
78453;SDS011;67750;55.832;49.124;2023-09-30T12:59:45;4.00;;;1.42;;
78453;SDS011;67750;55.832;49.124;2023-09-30T13:02:17;3.55;;;1.35;;
78453;SDS011;67750;55.832;49.124;2023-09-30T13:04:46;7.37;;;1.62;;
78453;SDS011;67750;55.832;49.124;2023-09-30T13:07:16;5.17;;;1.50;;
78453;SDS011;67750;55.832;49.124;2023-09-30T13:09:45;4.17;;;1.80;;
78453;SDS011;67750;55.832;49.124;2023-09-30T13:12:15;4.35;;;1.62;;
78453;SDS011;67750;55.832;49.124;2023-09-30T13:14:44;6.95;;;1.62;;
78453;SDS011;67750;55.832;49.124;2023-09-30T13:17:14;6.28;;;1.72;;
78453;SDS011;67750;55.832;49.124;2023-09-30T13:19:43;5.33;;;1.62;;
78453;SDS011;67750;55.832;49.124;2023-09-30T13:22:13;3.22;;;1.77;;
78453;SDS011;67750;55.832;49.124;2023-09-30T13:24:43;7.00;;;2.08;;
78453;SDS011;67750;55.832;49.124;2023-09-30T13:27:13;7.62;;;1.92;;
78453;SDS011;67750;55.832;49.124;2023-09-30T13:29:43;8.45;;;1.70;;
78453;SDS011;67750;55.832;49.124;2023-09-30T13:34:43;10.40;;;1.80;;
78453;SDS011;67750;55.832;49.124;2023-09-30T13:37:13;7.37;;;2.08;;
78453;SDS011;67750;55.832;49.124;2023-09-30T13:39:43;8.95;;;2.00;;
78453;SDS011;67750;55.832;49.124;2023-09-30T13:42:12;8.13;;;2.50;;
78453;SDS011;67750;55.832;49.124;2023-09-30T13:44:42;4.55;;;2.00;;
78453;SDS011;67750;55.832;49.124;2023-09-30T13:47:12;7.30;;;2.17;;
78453;SDS011;67750;55.832;49.124;2023-09-30T13:49:41;10.25;;;2.77;;
78453;SDS011;67750;55.832;49.124;2023-09-30T13:52:11;6.67;;;2.87;;
78453;SDS011;67750;55.832;49.124;2023-09-30T13:54:41;6.87;;;2.42;;
78453;SDS011;67750;55.832;49.124;2023-09-30T13:57:10;8.70;;;2.42;;
78453;SDS011;67750;55.832;49.124;2023-09-30T13:59:41;8.18;;;2.58;;
78453;SDS011;67750;55.832;49.124;2023-09-30T14:02:11;9.88;;;2.47;;
78453;SDS011;67750;55.832;49.124;2023-09-30T14:04:40;9.73;;;2.62;;
78453;SDS011;67750;55.832;49.124;2023-09-30T14:07:11;6.17;;;2.30;;
78453;SDS011;67750;55.832;49.124;2023-09-30T14:09:40;8.58;;;2.47;;
78453;SDS011;67750;55.832;49.124;2023-09-30T14:12:10;8.50;;;2.60;;
78453;SDS011;67750;55.832;49.124;2023-09-30T14:14:39;10.05;;;2.17;;
78453;SDS011;67750;55.832;49.124;2023-09-30T14:17:09;10.38;;;2.70;;
78453;SDS011;67750;55.832;49.124;2023-09-30T14:19:40;9.63;;;2.77;;
78453;SDS011;67750;55.832;49.124;2023-09-30T14:22:10;9.43;;;3.10;;
78453;SDS011;67750;55.832;49.124;2023-09-30T14:24:40;7.90;;;2.80;;
78453;SDS011;67750;55.832;49.124;2023-09-30T14:27:10;7.30;;;2.92;;
78453;SDS011;67750;55.832;49.124;2023-09-30T14:29:41;6.87;;;2.75;;
78453;SDS011;67750;55.832;49.124;2023-09-30T14:32:11;8.98;;;2.92;;
78453;SDS011;67750;55.832;49.124;2023-09-30T14:34:41;10.63;;;2.45;;
78453;SDS011;67750;55.832;49.124;2023-09-30T14:37:10;9.10;;;2.87;;
78453;SDS011;67750;55.832;49.124;2023-09-30T14:39:40;12.70;;;2.77;;
78453;SDS011;67750;55.832;49.124;2023-09-30T14:42:09;12.43;;;3.05;;
78453;SDS011;67750;55.832;49.124;2023-09-30T14:44:39;8.58;;;3.42;;
78453;SDS011;67750;55.832;49.124;2023-09-30T14:47:09;11.63;;;3.83;;
78453;SDS011;67750;55.832;49.124;2023-09-30T14:49:39;11.90;;;3.45;;
78453;SDS011;67750;55.832;49.124;2023-09-30T14:52:09;7.70;;;2.70;;
78453;SDS011;67750;55.832;49.124;2023-09-30T14:54:38;13.35;;;2.65;;
78453;SDS011;67750;55.832;49.124;2023-09-30T14:57:08;6.95;;;2.95;;
78453;SDS011;67750;55.832;49.124;2023-09-30T14:59:38;7.67;;;2.42;;
78453;SDS011;67750;55.832;49.124;2023-09-30T15:02:08;7.47;;;2.55;;
78453;SDS011;67750;55.832;49.124;2023-09-30T15:04:39;15.35;;;3.10;;
78453;SDS011;67750;55.832;49.124;2023-09-30T15:07:09;8.03;;;2.58;;
78453;SDS011;67750;55.832;49.124;2023-09-30T15:09:39;5.92;;;2.42;;
78453;SDS011;67750;55.832;49.124;2023-09-30T15:12:09;10.78;;;2.52;;
78453;SDS011;67750;55.832;49.124;2023-09-30T15:14:39;11.20;;;2.62;;
78453;SDS011;67750;55.832;49.124;2023-09-30T15:17:09;7.72;;;3.20;;
78453;SDS011;67750;55.832;49.124;2023-09-30T15:19:38;9.35;;;3.08;;
78453;SDS011;67750;55.832;49.124;2023-09-30T15:22:08;9.18;;;2.72;;
78453;SDS011;67750;55.832;49.124;2023-09-30T15:24:37;15.03;;;3.45;;
78453;SDS011;67750;55.832;49.124;2023-09-30T15:27:07;15.32;;;4.95;;
78453;SDS011;67750;55.832;49.124;2023-09-30T15:29:37;11.93;;;5.70;;
78453;SDS011;67750;55.832;49.124;2023-09-30T15:32:06;15.93;;;6.60;;
78453;SDS011;67750;55.832;49.124;2023-09-30T15:34:36;12.07;;;4.97;;
78453;SDS011;67750;55.832;49.124;2023-09-30T15:37:07;10.55;;;4.97;;
78453;SDS011;67750;55.832;49.124;2023-09-30T15:39:37;11.50;;;5.47;;
78453;SDS011;67750;55.832;49.124;2023-09-30T15:42:07;16.12;;;5.35;;
78453;SDS011;67750;55.832;49.124;2023-09-30T15:44:38;14.87;;;6.55;;
78453;SDS011;67750;55.832;49.124;2023-09-30T15:47:08;11.48;;;6.12;;
78453;SDS011;67750;55.832;49.124;2023-09-30T15:49:38;14.90;;;6.05;;
78453;SDS011;67750;55.832;49.124;2023-09-30T15:52:07;18.52;;;7.30;;
78453;SDS011;67750;55.832;49.124;2023-09-30T15:54:37;16.90;;;6.97;;